sensor_id;sensor_type;location;lat;lon;timestamp;P1;durP1;ratioP1;P2;durP2;ratioP2
68310;SDS011;55157;51.036;17.058;2022-09-09T00:00:16;10.10;;;5.82;;
68310;SDS011;55157;51.036;17.058;2022-09-09T00:02:43;8.00;;;6.07;;
68310;SDS011;55157;51.036;17.058;2022-09-09T00:05:12;15.93;;;5.55;;
68310;SDS011;55157;51.036;17.058;2022-09-09T00:07:40;6.85;;;5.35;;
68310;SDS011;55157;51.036;17.058;2022-09-09T00:10:13;17.73;;;7.30;;
68310;SDS011;55157;51.036;17.058;2022-09-09T00:12:40;7.10;;;5.88;;
68310;SDS011;55157;51.036;17.058;2022-09-09T00:15:11;12.63;;;6.55;;
68310;SDS011;55157;51.036;17.058;2022-09-09T00:17:38;10.07;;;6.47;;
68310;SDS011;55157;51.036;17.058;2022-09-09T00:20:05;7.00;;;6.13;;
68310;SDS011;55157;51.036;17.058;2022-09-09T00:22:36;7.40;;;6.55;;
68310;SDS011;55157;51.036;17.058;2022-09-09T00:25:08;12.65;;;6.30;;
68310;SDS011;55157;51.036;17.058;2022-09-09T00:27:36;7.53;;;6.00;;
68310;SDS011;55157;51.036;17.058;2022-09-09T00:30:14;8.02;;;6.45;;
68310;SDS011;55157;51.036;17.058;2022-09-09T00:32:39;8.57;;;6.45;;
68310;SDS011;55157;51.036;17.058;2022-09-09T00:35:12;11.85;;;5.88;;
68310;SDS011;55157;51.036;17.058;2022-09-09T00:37:38;16.80;;;5.93;;
68310;SDS011;55157;51.036;17.058;2022-09-09T00:40:06;6.45;;;5.63;;
68310;SDS011;55157;51.036;17.058;2022-09-09T00:42:37;9.15;;;6.40;;
68310;SDS011;55157;51.036;17.058;2022-09-09T00:45:09;9.27;;;5.40;;
68310;SDS011;55157;51.036;17.058;2022-09-09T00:47:45;7.25;;;5.88;;
68310;SDS011;55157;51.036;17.058;2022-09-09T00:50:15;6.93;;;5.20;;
68310;SDS011;55157;51.036;17.058;2022-09-09T00:52:43;7.53;;;5.95;;
68310;SDS011;55157;51.036;17.058;2022-09-09T00:55:13;10.50;;;5.68;;
68310;SDS011;55157;51.036;17.058;2022-09-09T00:57:41;7.50;;;5.13;;
68310;SDS011;55157;51.036;17.058;2022-09-09T01:00:16;9.85;;;4.70;;
68310;SDS011;55157;51.036;17.058;2022-09-09T01:02:44;8.68;;;5.50;;
68310;SDS011;55157;51.036;17.058;2022-09-09T01:05:15;14.27;;;6.70;;
68310;SDS011;55157;51.036;17.058;2022-09-09T01:07:43;10.23;;;4.47;;
68310;SDS011;55157;51.036;17.058;2022-09-09T01:10:11;8.23;;;4.55;;
68310;SDS011;55157;51.036;17.058;2022-09-09T01:12:42;8.20;;;4.28;;
68310;SDS011;55157;51.036;17.058;2022-09-09T01:15:09;16.58;;;5.15;;
68310;SDS011;55157;51.036;17.058;2022-09-09T01:17:37;8.32;;;4.95;;
68310;SDS011;55157;51.036;17.058;2022-09-09T01:20:04;6.65;;;4.43;;
68310;SDS011;55157;51.036;17.058;2022-09-09T01:22:35;5.13;;;4.20;;
68310;SDS011;55157;51.036;17.058;2022-09-09T01:27:46;8.10;;;5.10;;
68310;SDS011;55157;51.036;17.058;2022-09-09T01:30:14;6.47;;;5.10;;
68310;SDS011;55157;51.036;17.058;2022-09-09T01:32:41;9.60;;;6.00;;
68310;SDS011;55157;51.036;17.058;2022-09-09T01:35:07;10.27;;;4.88;;
68310;SDS011;55157;51.036;17.058;2022-09-09T01:37:35;7.95;;;4.68;;
68310;SDS011;55157;51.036;17.058;2022-09-09T01:40:01;4.68;;;3.83;;
68310;SDS011;55157;51.036;17.058;2022-09-09T01:42:26;6.22;;;3.83;;
68310;SDS011;55157;51.036;17.058;2022-09-09T01:44:53;6.25;;;3.75;;
68310;SDS011;55157;51.036;17.058;2022-09-09T01:47:18;5.40;;;3.85;;
68310;SDS011;55157;51.036;17.058;2022-09-09T01:49:43;3.83;;;3.42;;
68310;SDS011;55157;51.036;17.058;2022-09-09T01:52:08;5.00;;;4.18;;
68310;SDS011;55157;51.036;17.058;2022-09-09T01:54:33;7.90;;;3.97;;
68310;SDS011;55157;51.036;17.058;2022-09-09T01:57:02;5.53;;;4.20;;
68310;SDS011;55157;51.036;17.058;2022-09-09T01:59:44;5.63;;;4.05;;
68310;SDS011;55157;51.036;17.058;2022-09-09T02:02:13;5.65;;;3.63;;
68310;SDS011;55157;51.036;17.058;2022-09-09T02:04:43;6.03;;;3.85;;
68310;SDS011;55157;51.036;17.058;2022-09-09T02:09:52;4.28;;;3.60;;
68310;SDS011;55157;51.036;17.058;2022-09-09T02:12:22;5.72;;;3.78;;
68310;SDS011;55157;51.036;17.058;2022-09-09T02:14:49;8.13;;;3.85;;
68310;SDS011;55157;51.036;17.058;2022-09-09T02:17:19;4.80;;;4.38;;
68310;SDS011;55157;51.036;17.058;2022-09-09T02:19:49;5.38;;;3.38;;
68310;SDS011;55157;51.036;17.058;2022-09-09T02:22:17;8.43;;;3.40;;
68310;SDS011;55157;51.036;17.058;2022-09-09T02:24:43;4.40;;;3.75;;
68310;SDS011;55157;51.036;17.058;2022-09-09T02:27:09;4.22;;;3.55;;
68310;SDS011;55157;51.036;17.058;2022-09-09T02:29:34;10.90;;;4.25;;
68310;SDS011;55157;51.036;17.058;2022-09-09T02:32:02;9.63;;;4.18;;
68310;SDS011;55157;51.036;17.058;2022-09-09T02:34:31;6.40;;;3.85;;
68310;SDS011;55157;51.036;17.058;2022-09-09T02:36:59;5.30;;;3.92;;
68310;SDS011;55157;51.036;17.058;2022-09-09T02:39:25;5.15;;;4.65;;
68310;SDS011;55157;51.036;17.058;2022-09-09T02:41:51;7.72;;;3.80;;
68310;SDS011;55157;51.036;17.058;2022-09-09T02:44:17;6.57;;;3.80;;
68310;SDS011;55157;51.036;17.058;2022-09-09T02:46:47;4.07;;;3.67;;
68310;SDS011;55157;51.036;17.058;2022-09-09T02:49:18;7.93;;;3.58;;
68310;SDS011;55157;51.036;17.058;2022-09-09T02:51:46;9.10;;;4.40;;
68310;SDS011;55157;51.036;17.058;2022-09-09T02:54:17;7.15;;;4.25;;
68310;SDS011;55157;51.036;17.058;2022-09-09T02:56:46;7.70;;;5.13;;
68310;SDS011;55157;51.036;17.058;2022-09-09T02:59:12;8.48;;;4.13;;
68310;SDS011;55157;51.036;17.058;2022-09-09T03:01:37;5.80;;;4.30;;
68310;SDS011;55157;51.036;17.058;2022-09-09T03:04:02;8.00;;;4.40;;
68310;SDS011;55157;51.036;17.058;2022-09-09T03:06:28;6.65;;;3.78;;
68310;SDS011;55157;51.036;17.058;2022-09-09T03:08:54;10.07;;;4.38;;
68310;SDS011;55157;51.036;17.058;2022-09-09T03:11:20;10.02;;;3.80;;
68310;SDS011;55157;51.036;17.058;2022-09-09T03:13:45;5.55;;;4.90;;
68310;SDS011;55157;51.036;17.058;2022-09-09T03:16:10;7.63;;;4.93;;
68310;SDS011;55157;51.036;17.058;2022-09-09T03:18:35;10.73;;;6.40;;
68310;SDS011;55157;51.036;17.058;2022-09-09T03:21:01;6.43;;;5.70;;
68310;SDS011;55157;51.036;17.058;2022-09-09T03:23:26;7.53;;;5.45;;
68310;SDS011;55157;51.036;17.058;2022-09-09T03:25:53;7.88;;;4.70;;
68310;SDS011;55157;51.036;17.058;2022-09-09T03:28:18;7.50;;;5.10;;
68310;SDS011;55157;51.036;17.058;2022-09-09T03:30:43;7.03;;;4.75;;
68310;SDS011;55157;51.036;17.058;2022-09-09T03:33:08;7.47;;;5.38;;
68310;SDS011;55157;51.036;17.058;2022-09-09T03:35:34;5.70;;;5.15;;
68310;SDS011;55157;51.036;17.058;2022-09-09T03:37:59;7.88;;;5.40;;
68310;SDS011;55157;51.036;17.058;2022-09-09T03:40:25;5.68;;;4.82;;
68310;SDS011;55157;51.036;17.058;2022-09-09T03:42:51;9.40;;;4.78;;
68310;SDS011;55157;51.036;17.058;2022-09-09T03:45:17;6.50;;;4.63;;
68310;SDS011;55157;51.036;17.058;2022-09-09T03:47:42;7.35;;;6.30;;
68310;SDS011;55157;51.036;17.058;2022-09-09T03:50:08;9.68;;;6.57;;
68310;SDS011;55157;51.036;17.058;2022-09-09T03:52:34;10.57;;;6.45;;
68310;SDS011;55157;51.036;17.058;2022-09-09T03:54:59;7.32;;;5.00;;
68310;SDS011;55157;51.036;17.058;2022-09-09T03:57:25;7.00;;;5.80;;
68310;SDS011;55157;51.036;17.058;2022-09-09T03:59:51;8.10;;;5.88;;
68310;SDS011;55157;51.036;17.058;2022-09-09T04:02:17;5.55;;;5.05;;
68310;SDS011;55157;51.036;17.058;2022-09-09T04:04:42;9.55;;;6.10;;
68310;SDS011;55157;51.036;17.058;2022-09-09T04:07:08;6.65;;;5.85;;
68310;SDS011;55157;51.036;17.058;2022-09-09T04:09:33;10.50;;;7.13;;
68310;SDS011;55157;51.036;17.058;2022-09-09T04:11:59;6.15;;;5.53;;
68310;SDS011;55157;51.036;17.058;2022-09-09T04:14:24;13.45;;;6.15;;
68310;SDS011;55157;51.036;17.058;2022-09-09T04:16:51;6.22;;;5.63;;
68310;SDS011;55157;51.036;17.058;2022-09-09T04:19:16;5.80;;;5.30;;
68310;SDS011;55157;51.036;17.058;2022-09-09T04:21:41;6.75;;;5.47;;
68310;SDS011;55157;51.036;17.058;2022-09-09T04:24:07;8.40;;;5.63;;
68310;SDS011;55157;51.036;17.058;2022-09-09T04:26:32;6.97;;;5.70;;
68310;SDS011;55157;51.036;17.058;2022-09-09T04:28:58;7.15;;;5.70;;
68310;SDS011;55157;51.036;17.058;2022-09-09T04:31:23;9.15;;;5.65;;
68310;SDS011;55157;51.036;17.058;2022-09-09T04:33:50;6.05;;;5.18;;
68310;SDS011;55157;51.036;17.058;2022-09-09T04:36:15;15.00;;;5.60;;
68310;SDS011;55157;51.036;17.058;2022-09-09T04:38:41;8.00;;;5.88;;
68310;SDS011;55157;51.036;17.058;2022-09-09T04:41:06;10.88;;;5.20;;
68310;SDS011;55157;51.036;17.058;2022-09-09T04:43:31;8.35;;;5.38;;
68310;SDS011;55157;51.036;17.058;2022-09-09T04:45:57;8.73;;;5.60;;
68310;SDS011;55157;51.036;17.058;2022-09-09T04:48:24;8.55;;;6.25;;
68310;SDS011;55157;51.036;17.058;2022-09-09T04:50:58;9.55;;;5.38;;
68310;SDS011;55157;51.036;17.058;2022-09-09T04:53:23;11.18;;;5.25;;
68310;SDS011;55157;51.036;17.058;2022-09-09T04:55:48;9.13;;;4.82;;
68310;SDS011;55157;51.036;17.058;2022-09-09T04:58:14;5.53;;;5.00;;
68310;SDS011;55157;51.036;17.058;2022-09-09T05:00:39;7.22;;;5.70;;
68310;SDS011;55157;51.036;17.058;2022-09-09T05:03:04;7.85;;;5.85;;
68310;SDS011;55157;51.036;17.058;2022-09-09T05:05:30;6.97;;;5.20;;
68310;SDS011;55157;51.036;17.058;2022-09-09T05:08:01;9.07;;;4.75;;
68310;SDS011;55157;51.036;17.058;2022-09-09T05:10:27;6.22;;;5.43;;
68310;SDS011;55157;51.036;17.058;2022-09-09T05:12:52;11.73;;;5.68;;
68310;SDS011;55157;51.036;17.058;2022-09-09T05:15:17;6.53;;;5.55;;
68310;SDS011;55157;51.036;17.058;2022-09-09T05:17:43;6.80;;;4.55;;
68310;SDS011;55157;51.036;17.058;2022-09-09T05:20:08;9.10;;;6.25;;
68310;SDS011;55157;51.036;17.058;2022-09-09T05:22:33;7.93;;;5.93;;
68310;SDS011;55157;51.036;17.058;2022-09-09T05:25:00;9.38;;;6.97;;
68310;SDS011;55157;51.036;17.058;2022-09-09T05:27:25;9.30;;;6.63;;
68310;SDS011;55157;51.036;17.058;2022-09-09T05:29:50;16.13;;;6.57;;
68310;SDS011;55157;51.036;17.058;2022-09-09T05:32:16;10.45;;;6.30;;
68310;SDS011;55157;51.036;17.058;2022-09-09T05:34:41;7.47;;;5.88;;
68310;SDS011;55157;51.036;17.058;2022-09-09T05:37:06;7.15;;;5.40;;
68310;SDS011;55157;51.036;17.058;2022-09-09T05:39:31;9.05;;;4.80;;
68310;SDS011;55157;51.036;17.058;2022-09-09T05:41:58;7.35;;;5.18;;
68310;SDS011;55157;51.036;17.058;2022-09-09T05:44:23;6.75;;;5.82;;
68310;SDS011;55157;51.036;17.058;2022-09-09T05:46:48;6.18;;;5.63;;
68310;SDS011;55157;51.036;17.058;2022-09-09T05:49:14;14.50;;;6.63;;
68310;SDS011;55157;51.036;17.058;2022-09-09T05:51:39;5.72;;;5.13;;
68310;SDS011;55157;51.036;17.058;2022-09-09T05:54:04;11.82;;;5.28;;
68310;SDS011;55157;51.036;17.058;2022-09-09T05:56:30;11.75;;;4.70;;
68310;SDS011;55157;51.036;17.058;2022-09-09T05:58:56;7.93;;;4.65;;
68310;SDS011;55157;51.036;17.058;2022-09-09T06:01:22;8.80;;;4.68;;
68310;SDS011;55157;51.036;17.058;2022-09-09T06:03:48;6.22;;;4.50;;
68310;SDS011;55157;51.036;17.058;2022-09-09T06:06:15;11.05;;;5.00;;
68310;SDS011;55157;51.036;17.058;2022-09-09T06:08:40;5.93;;;4.40;;
68310;SDS011;55157;51.036;17.058;2022-09-09T06:11:07;7.22;;;4.00;;
68310;SDS011;55157;51.036;17.058;2022-09-09T06:13:32;5.70;;;3.90;;
68310;SDS011;55157;51.036;17.058;2022-09-09T06:15:59;12.05;;;5.57;;
68310;SDS011;55157;51.036;17.058;2022-09-09T06:18:24;8.48;;;4.88;;
68310;SDS011;55157;51.036;17.058;2022-09-09T06:20:53;4.40;;;3.53;;
68310;SDS011;55157;51.036;17.058;2022-09-09T06:23:18;4.93;;;4.35;;
68310;SDS011;55157;51.036;17.058;2022-09-09T06:25:43;10.30;;;5.07;;
68310;SDS011;55157;51.036;17.058;2022-09-09T06:28:09;6.68;;;4.28;;
68310;SDS011;55157;51.036;17.058;2022-09-09T06:30:34;5.18;;;4.22;;
68310;SDS011;55157;51.036;17.058;2022-09-09T06:33:01;4.20;;;3.80;;
68310;SDS011;55157;51.036;17.058;2022-09-09T06:35:26;6.70;;;3.97;;
68310;SDS011;55157;51.036;17.058;2022-09-09T06:37:51;7.75;;;4.13;;
68310;SDS011;55157;51.036;17.058;2022-09-09T06:40:16;5.70;;;4.35;;
68310;SDS011;55157;51.036;17.058;2022-09-09T06:42:42;6.70;;;4.28;;
68310;SDS011;55157;51.036;17.058;2022-09-09T06:45:07;4.93;;;3.85;;
68310;SDS011;55157;51.036;17.058;2022-09-09T06:47:33;5.93;;;3.83;;
68310;SDS011;55157;51.036;17.058;2022-09-09T06:49:59;7.35;;;4.78;;
68310;SDS011;55157;51.036;17.058;2022-09-09T06:52:25;15.20;;;3.40;;
68310;SDS011;55157;51.036;17.058;2022-09-09T06:54:50;3.45;;;2.95;;
68310;SDS011;55157;51.036;17.058;2022-09-09T06:57:15;3.75;;;2.83;;
68310;SDS011;55157;51.036;17.058;2022-09-09T06:59:40;4.07;;;2.90;;
68310;SDS011;55157;51.036;17.058;2022-09-09T07:02:06;10.32;;;3.03;;
68310;SDS011;55157;51.036;17.058;2022-09-09T07:04:32;4.80;;;2.85;;
68310;SDS011;55157;51.036;17.058;2022-09-09T07:06:59;4.20;;;2.45;;
68310;SDS011;55157;51.036;17.058;2022-09-09T07:09:24;5.38;;;2.45;;
68310;SDS011;55157;51.036;17.058;2022-09-09T07:11:50;10.02;;;2.80;;
68310;SDS011;55157;51.036;17.058;2022-09-09T07:14:15;6.25;;;2.75;;
68310;SDS011;55157;51.036;17.058;2022-09-09T07:16:41;7.97;;;3.08;;
68310;SDS011;55157;51.036;17.058;2022-09-09T07:19:06;10.00;;;3.35;;
68310;SDS011;55157;51.036;17.058;2022-09-09T07:21:32;6.73;;;4.10;;
68310;SDS011;55157;51.036;17.058;2022-09-09T07:23:59;3.40;;;2.13;;
68310;SDS011;55157;51.036;17.058;2022-09-09T07:26:24;6.13;;;2.28;;
68310;SDS011;55157;51.036;17.058;2022-09-09T07:28:50;8.27;;;2.90;;
68310;SDS011;55157;51.036;17.058;2022-09-09T07:31:16;4.47;;;1.92;;
68310;SDS011;55157;51.036;17.058;2022-09-09T07:33:42;6.30;;;2.45;;
68310;SDS011;55157;51.036;17.058;2022-09-09T07:36:08;5.43;;;1.92;;
68310;SDS011;55157;51.036;17.058;2022-09-09T07:38:37;8.48;;;2.00;;
68310;SDS011;55157;51.036;17.058;2022-09-09T07:41:06;6.38;;;1.60;;
68310;SDS011;55157;51.036;17.058;2022-09-09T07:43:31;12.23;;;2.30;;
68310;SDS011;55157;51.036;17.058;2022-09-09T07:45:57;4.80;;;2.25;;
68310;SDS011;55157;51.036;17.058;2022-09-09T07:48:22;7.45;;;2.72;;
68310;SDS011;55157;51.036;17.058;2022-09-09T07:50:47;2.80;;;2.00;;
68310;SDS011;55157;51.036;17.058;2022-09-09T07:53:13;3.10;;;2.30;;
68310;SDS011;55157;51.036;17.058;2022-09-09T07:55:38;5.05;;;2.42;;
68310;SDS011;55157;51.036;17.058;2022-09-09T07:58:04;3.83;;;2.00;;
68310;SDS011;55157;51.036;17.058;2022-09-09T08:00:30;4.30;;;2.00;;
68310;SDS011;55157;51.036;17.058;2022-09-09T08:02:55;3.80;;;1.93;;
68310;SDS011;55157;51.036;17.058;2022-09-09T08:05:20;4.80;;;2.00;;
68310;SDS011;55157;51.036;17.058;2022-09-09T08:07:46;3.67;;;1.73;;
68310;SDS011;55157;51.036;17.058;2022-09-09T08:10:11;3.55;;;1.50;;
68310;SDS011;55157;51.036;17.058;2022-09-09T08:12:36;3.33;;;1.83;;
68310;SDS011;55157;51.036;17.058;2022-09-09T08:15:03;3.80;;;1.70;;
68310;SDS011;55157;51.036;17.058;2022-09-09T08:17:29;3.05;;;1.50;;
68310;SDS011;55157;51.036;17.058;2022-09-09T08:19:54;3.30;;;1.60;;
68310;SDS011;55157;51.036;17.058;2022-09-09T08:22:19;8.95;;;1.77;;
68310;SDS011;55157;51.036;17.058;2022-09-09T08:24:44;4.82;;;1.80;;
68310;SDS011;55157;51.036;17.058;2022-09-09T08:27:10;9.63;;;1.87;;
68310;SDS011;55157;51.036;17.058;2022-09-09T08:29:35;4.20;;;1.20;;
68310;SDS011;55157;51.036;17.058;2022-09-09T08:32:02;3.67;;;1.57;;
68310;SDS011;55157;51.036;17.058;2022-09-09T08:34:27;5.50;;;1.30;;
68310;SDS011;55157;51.036;17.058;2022-09-09T08:36:52;4.25;;;1.40;;
68310;SDS011;55157;51.036;17.058;2022-09-09T08:39:18;6.28;;;1.90;;
68310;SDS011;55157;51.036;17.058;2022-09-09T08:41:57;5.47;;;1.63;;
68310;SDS011;55157;51.036;17.058;2022-09-09T08:44:28;4.93;;;1.45;;
68310;SDS011;55157;51.036;17.058;2022-09-09T08:46:58;3.88;;;1.27;;
68310;SDS011;55157;51.036;17.058;2022-09-09T08:49:31;8.70;;;1.20;;
68310;SDS011;55157;51.036;17.058;2022-09-09T08:52:00;1.92;;;1.00;;
68310;SDS011;55157;51.036;17.058;2022-09-09T08:54:27;4.43;;;1.10;;
68310;SDS011;55157;51.036;17.058;2022-09-09T08:56:55;4.38;;;1.73;;
68310;SDS011;55157;51.036;17.058;2022-09-09T08:59:21;1.63;;;0.95;;
68310;SDS011;55157;51.036;17.058;2022-09-09T09:01:50;9.88;;;1.00;;
68310;SDS011;55157;51.036;17.058;2022-09-09T09:04:21;3.75;;;1.30;;
68310;SDS011;55157;51.036;17.058;2022-09-09T09:06:53;1.20;;;0.80;;
68310;SDS011;55157;51.036;17.058;2022-09-09T09:09:21;4.10;;;0.70;;
68310;SDS011;55157;51.036;17.058;2022-09-09T09:11:49;3.90;;;0.75;;
68310;SDS011;55157;51.036;17.058;2022-09-09T09:14:16;2.58;;;1.17;;
68310;SDS011;55157;51.036;17.058;2022-09-09T09:16:46;247.25;;;19.50;;
68310;SDS011;55157;51.036;17.058;2022-09-09T09:19:13;3.83;;;1.33;;
68310;SDS011;55157;51.036;17.058;2022-09-09T09:21:39;3.47;;;1.00;;
68310;SDS011;55157;51.036;17.058;2022-09-09T09:24:11;3.17;;;0.95;;
68310;SDS011;55157;51.036;17.058;2022-09-09T09:26:46;1.85;;;1.00;;
68310;SDS011;55157;51.036;17.058;2022-09-09T09:29:13;4.20;;;1.38;;
68310;SDS011;55157;51.036;17.058;2022-09-09T09:31:38;2.42;;;1.17;;
68310;SDS011;55157;51.036;17.058;2022-09-09T09:34:04;4.67;;;1.17;;
68310;SDS011;55157;51.036;17.058;2022-09-09T09:36:33;2.73;;;1.13;;
68310;SDS011;55157;51.036;17.058;2022-09-09T09:38:59;2.42;;;1.45;;
68310;SDS011;55157;51.036;17.058;2022-09-09T09:41:30;5.03;;;1.35;;
68310;SDS011;55157;51.036;17.058;2022-09-09T09:43:55;2.85;;;1.35;;
68310;SDS011;55157;51.036;17.058;2022-09-09T09:46:21;2.03;;;1.20;;
68310;SDS011;55157;51.036;17.058;2022-09-09T09:48:56;5.43;;;1.27;;
68310;SDS011;55157;51.036;17.058;2022-09-09T09:51:21;2.83;;;1.02;;
68310;SDS011;55157;51.036;17.058;2022-09-09T09:53:47;3.15;;;1.33;;
68310;SDS011;55157;51.036;17.058;2022-09-09T09:56:13;5.07;;;1.45;;
68310;SDS011;55157;51.036;17.058;2022-09-09T09:58:48;6.93;;;1.15;;
68310;SDS011;55157;51.036;17.058;2022-09-09T10:01:18;4.03;;;0.90;;
68310;SDS011;55157;51.036;17.058;2022-09-09T10:03:49;2.53;;;1.17;;
68310;SDS011;55157;51.036;17.058;2022-09-09T10:06:15;2.00;;;0.98;;
68310;SDS011;55157;51.036;17.058;2022-09-09T10:08:44;4.47;;;1.63;;
68310;SDS011;55157;51.036;17.058;2022-09-09T10:11:18;3.25;;;0.85;;
68310;SDS011;55157;51.036;17.058;2022-09-09T10:13:50;2.35;;;1.13;;
68310;SDS011;55157;51.036;17.058;2022-09-09T10:16:21;5.25;;;1.35;;
68310;SDS011;55157;51.036;17.058;2022-09-09T10:18:54;2.22;;;1.45;;
68310;SDS011;55157;51.036;17.058;2022-09-09T10:21:29;3.08;;;1.20;;
68310;SDS011;55157;51.036;17.058;2022-09-09T10:24:01;7.47;;;0.95;;
68310;SDS011;55157;51.036;17.058;2022-09-09T10:29:00;2.85;;;1.27;;
68310;SDS011;55157;51.036;17.058;2022-09-09T10:31:31;3.72;;;1.30;;
68310;SDS011;55157;51.036;17.058;2022-09-09T10:34:01;4.47;;;1.10;;
68310;SDS011;55157;51.036;17.058;2022-09-09T10:36:28;13.63;;;1.30;;
68310;SDS011;55157;51.036;17.058;2022-09-09T10:38:57;2.60;;;1.08;;
68310;SDS011;55157;51.036;17.058;2022-09-09T10:41:25;2.38;;;1.10;;
68310;SDS011;55157;51.036;17.058;2022-09-09T10:44:05;4.22;;;1.17;;
68310;SDS011;55157;51.036;17.058;2022-09-09T10:46:34;1.33;;;0.80;;
68310;SDS011;55157;51.036;17.058;2022-09-09T10:49:06;2.00;;;0.98;;
68310;SDS011;55157;51.036;17.058;2022-09-09T10:51:36;3.95;;;1.20;;
68310;SDS011;55157;51.036;17.058;2022-09-09T10:54:09;4.75;;;1.63;;
68310;SDS011;55157;51.036;17.058;2022-09-09T10:56:36;4.32;;;1.30;;
68310;SDS011;55157;51.036;17.058;2022-09-09T10:59:04;7.32;;;1.10;;
68310;SDS011;55157;51.036;17.058;2022-09-09T11:01:32;3.03;;;1.13;;
68310;SDS011;55157;51.036;17.058;2022-09-09T11:04:00;4.57;;;1.27;;
68310;SDS011;55157;51.036;17.058;2022-09-09T11:06:28;10.57;;;1.38;;
68310;SDS011;55157;51.036;17.058;2022-09-09T11:08:55;6.93;;;1.83;;
68310;SDS011;55157;51.036;17.058;2022-09-09T11:11:25;3.60;;;1.00;;
68310;SDS011;55157;51.036;17.058;2022-09-09T11:13:53;1.75;;;0.80;;
68310;SDS011;55157;51.036;17.058;2022-09-09T11:16:23;5.00;;;1.02;;
68310;SDS011;55157;51.036;17.058;2022-09-09T11:18:50;8.20;;;1.20;;
68310;SDS011;55157;51.036;17.058;2022-09-09T11:21:17;2.50;;;0.77;;
68310;SDS011;55157;51.036;17.058;2022-09-09T11:23:45;2.25;;;0.95;;
68310;SDS011;55157;51.036;17.058;2022-09-09T11:26:14;2.97;;;1.00;;
68310;SDS011;55157;51.036;17.058;2022-09-09T11:28:46;2.53;;;0.88;;
68310;SDS011;55157;51.036;17.058;2022-09-09T11:31:26;2.63;;;1.05;;
68310;SDS011;55157;51.036;17.058;2022-09-09T11:33:55;1.58;;;0.82;;
68310;SDS011;55157;51.036;17.058;2022-09-09T11:36:31;4.15;;;0.93;;
68310;SDS011;55157;51.036;17.058;2022-09-09T11:39:01;3.40;;;1.15;;
68310;SDS011;55157;51.036;17.058;2022-09-09T11:41:33;2.75;;;1.00;;
68310;SDS011;55157;51.036;17.058;2022-09-09T11:43:58;4.68;;;1.30;;
68310;SDS011;55157;51.036;17.058;2022-09-09T11:46:31;1.57;;;0.77;;
68310;SDS011;55157;51.036;17.058;2022-09-09T11:48:58;3.92;;;1.00;;
68310;SDS011;55157;51.036;17.058;2022-09-09T11:51:25;5.85;;;1.45;;
68310;SDS011;55157;51.036;17.058;2022-09-09T11:53:51;3.78;;;1.17;;
68310;SDS011;55157;51.036;17.058;2022-09-09T11:56:24;5.30;;;1.58;;
68310;SDS011;55157;51.036;17.058;2022-09-09T11:58:53;4.00;;;1.13;;
68310;SDS011;55157;51.036;17.058;2022-09-09T12:01:36;3.85;;;0.85;;
68310;SDS011;55157;51.036;17.058;2022-09-09T12:04:09;3.13;;;1.45;;
68310;SDS011;55157;51.036;17.058;2022-09-09T12:06:41;2.15;;;0.90;;
68310;SDS011;55157;51.036;17.058;2022-09-09T12:09:08;1.50;;;0.67;;
68310;SDS011;55157;51.036;17.058;2022-09-09T12:11:35;2.75;;;0.90;;
68310;SDS011;55157;51.036;17.058;2022-09-09T12:14:00;4.00;;;1.00;;
68310;SDS011;55157;51.036;17.058;2022-09-09T12:16:29;1.52;;;0.80;;
68310;SDS011;55157;51.036;17.058;2022-09-09T12:19:03;3.67;;;1.00;;
68310;SDS011;55157;51.036;17.058;2022-09-09T12:21:31;7.35;;;1.45;;
68310;SDS011;55157;51.036;17.058;2022-09-09T12:23:59;1.75;;;0.80;;
68310;SDS011;55157;51.036;17.058;2022-09-09T12:26:30;3.85;;;1.33;;
68310;SDS011;55157;51.036;17.058;2022-09-09T12:28:59;3.42;;;0.93;;
68310;SDS011;55157;51.036;17.058;2022-09-09T12:31:28;4.68;;;1.05;;
68310;SDS011;55157;51.036;17.058;2022-09-09T12:34:02;5.30;;;1.00;;
68310;SDS011;55157;51.036;17.058;2022-09-09T12:36:31;3.50;;;0.90;;
68310;SDS011;55157;51.036;17.058;2022-09-09T12:38:57;3.53;;;1.10;;
68310;SDS011;55157;51.036;17.058;2022-09-09T12:41:24;2.13;;;1.08;;
68310;SDS011;55157;51.036;17.058;2022-09-09T12:43:50;2.90;;;0.90;;
68310;SDS011;55157;51.036;17.058;2022-09-09T12:46:19;5.40;;;1.17;;
68310;SDS011;55157;51.036;17.058;2022-09-09T12:48:46;1.88;;;1.15;;
68310;SDS011;55157;51.036;17.058;2022-09-09T12:51:16;6.37;;;1.10;;
68310;SDS011;55157;51.036;17.058;2022-09-09T12:53:44;3.57;;;1.00;;
68310;SDS011;55157;51.036;17.058;2022-09-09T12:56:17;4.63;;;1.02;;
68310;SDS011;55157;51.036;17.058;2022-09-09T12:58:44;6.03;;;1.10;;
68310;SDS011;55157;51.036;17.058;2022-09-09T13:01:17;5.05;;;1.50;;
68310;SDS011;55157;51.036;17.058;2022-09-09T13:03:43;3.85;;;1.10;;
68310;SDS011;55157;51.036;17.058;2022-09-09T13:06:12;1.93;;;1.00;;
68310;SDS011;55157;51.036;17.058;2022-09-09T13:08:38;2.42;;;0.98;;
68310;SDS011;55157;51.036;17.058;2022-09-09T13:11:06;2.45;;;1.00;;
68310;SDS011;55157;51.036;17.058;2022-09-09T13:13:34;1.70;;;0.93;;
68310;SDS011;55157;51.036;17.058;2022-09-09T13:16:00;5.57;;;1.05;;
68310;SDS011;55157;51.036;17.058;2022-09-09T13:18:26;6.40;;;1.33;;
68310;SDS011;55157;51.036;17.058;2022-09-09T13:20:52;3.80;;;1.10;;
68310;SDS011;55157;51.036;17.058;2022-09-09T13:23:18;2.72;;;0.88;;
68310;SDS011;55157;51.036;17.058;2022-09-09T13:25:51;4.50;;;1.08;;
68310;SDS011;55157;51.036;17.058;2022-09-09T13:28:22;5.32;;;1.88;;
68310;SDS011;55157;51.036;17.058;2022-09-09T13:30:55;3.33;;;1.52;;
68310;SDS011;55157;51.036;17.058;2022-09-09T13:33:21;2.33;;;1.20;;
68310;SDS011;55157;51.036;17.058;2022-09-09T13:35:47;3.70;;;1.10;;
68310;SDS011;55157;51.036;17.058;2022-09-09T13:38:13;4.13;;;1.15;;
68310;SDS011;55157;51.036;17.058;2022-09-09T13:40:39;6.35;;;1.55;;
68310;SDS011;55157;51.036;17.058;2022-09-09T13:43:04;10.00;;;1.30;;
68310;SDS011;55157;51.036;17.058;2022-09-09T13:45:31;4.80;;;1.10;;
68310;SDS011;55157;51.036;17.058;2022-09-09T13:47:56;3.15;;;1.10;;
68310;SDS011;55157;51.036;17.058;2022-09-09T13:50:22;14.88;;;2.00;;
68310;SDS011;55157;51.036;17.058;2022-09-09T13:52:48;2.80;;;1.05;;
68310;SDS011;55157;51.036;17.058;2022-09-09T13:55:13;2.70;;;0.98;;
68310;SDS011;55157;51.036;17.058;2022-09-09T13:57:38;3.83;;;1.03;;
68310;SDS011;55157;51.036;17.058;2022-09-09T14:00:05;2.20;;;1.17;;
68310;SDS011;55157;51.036;17.058;2022-09-09T14:02:32;3.60;;;1.00;;
68310;SDS011;55157;51.036;17.058;2022-09-09T14:04:57;2.40;;;1.13;;
68310;SDS011;55157;51.036;17.058;2022-09-09T14:07:22;3.03;;;1.00;;
68310;SDS011;55157;51.036;17.058;2022-09-09T14:09:48;2.60;;;1.17;;
68310;SDS011;55157;51.036;17.058;2022-09-09T14:12:13;2.70;;;0.87;;
68310;SDS011;55157;51.036;17.058;2022-09-09T14:14:38;5.00;;;1.10;;
68310;SDS011;55157;51.036;17.058;2022-09-09T14:17:06;3.20;;;1.40;;
68310;SDS011;55157;51.036;17.058;2022-09-09T14:19:33;2.85;;;1.00;;
68310;SDS011;55157;51.036;17.058;2022-09-09T14:21:58;3.67;;;0.93;;
68310;SDS011;55157;51.036;17.058;2022-09-09T14:24:24;4.78;;;1.73;;
68310;SDS011;55157;51.036;17.058;2022-09-09T14:26:49;3.42;;;0.95;;
68310;SDS011;55157;51.036;17.058;2022-09-09T14:29:14;7.53;;;1.50;;
68310;SDS011;55157;51.036;17.058;2022-09-09T14:31:40;3.10;;;1.05;;
68310;SDS011;55157;51.036;17.058;2022-09-09T14:34:06;5.88;;;1.15;;
68310;SDS011;55157;51.036;17.058;2022-09-09T14:36:33;4.03;;;0.95;;
68310;SDS011;55157;51.036;17.058;2022-09-09T14:38:58;2.90;;;1.02;;
68310;SDS011;55157;51.036;17.058;2022-09-09T15:07:45;2.95;;;1.20;;